createdAt,value
2022-10-27T00:00:50.829Z,10.90
2022-10-27T00:03:22.975Z,10.90
2022-10-27T00:05:54.814Z,10.80
2022-10-27T00:08:26.529Z,10.90
2022-10-27T00:11:00.113Z,10.80
2022-10-27T00:13:31.995Z,10.90
2022-10-27T00:16:07.316Z,10.90
2022-10-27T00:18:39.142Z,10.90
2022-10-27T00:21:13.687Z,10.90
2022-10-27T00:23:49.183Z,10.90
2022-10-27T00:26:22.163Z,10.90
2022-10-27T00:28:53.853Z,10.80
2022-10-27T00:31:25.562Z,10.70
2022-10-27T00:33:57.289Z,10.60
2022-10-27T00:36:29.137Z,10.50
2022-10-27T00:39:01.019Z,10.50
2022-10-27T00:41:38.845Z,10.40
2022-10-27T00:44:37.013Z,10.40
2022-10-27T00:47:35.928Z,10.30
2022-10-27T00:50:18.919Z,10.30
2022-10-27T00:52:57.083Z,10.30
2022-10-27T00:55:33.451Z,10.20
2022-10-27T00:58:10.263Z,10.20
2022-10-27T01:00:43.286Z,10.20
2022-10-27T01:03:19.739Z,10.10
2022-10-27T01:05:53.401Z,10.10
2022-10-27T01:08:25.737Z,10.00
2022-10-27T01:10:57.490Z,10.00
2022-10-27T01:13:29.287Z,10.00
2022-10-27T01:16:07.981Z,9.90
2022-10-27T01:18:39.651Z,9.90
2022-10-27T01:21:38.719Z,9.90
2022-10-27T01:24:45.747Z,9.90
2022-10-27T01:27:44.525Z,9.90
2022-10-27T01:30:20.057Z,9.80
2022-10-27T01:33:13.675Z,9.80
2022-10-27T01:35:57.901Z,9.70
2022-10-27T01:38:32.841Z,9.70
2022-10-27T01:41:16.603Z,9.70
2022-10-27T01:43:51.398Z,9.70
2022-10-27T01:46:23.322Z,9.70
2022-10-27T01:48:55.604Z,9.60
2022-10-27T01:51:27.295Z,9.60
2022-10-27T01:54:00.046Z,9.60
2022-10-27T01:56:59.294Z,9.50
2022-10-27T02:00:03.043Z,9.50
2022-10-27T02:02:48.890Z,9.50
2022-10-27T02:05:34.594Z,9.50
2022-10-27T02:08:13.238Z,9.50
2022-10-27T02:10:55.127Z,9.40
2022-10-27T02:13:29.215Z,9.40
2022-10-27T02:16:21.846Z,9.40
2022-10-27T02:18:59.423Z,9.30
2022-10-27T02:21:34.260Z,9.30
2022-10-27T02:24:06.571Z,9.30
2022-10-27T02:26:55.716Z,9.30
2022-10-27T02:29:37.542Z,9.30
2022-10-27T02:32:12.926Z,9.30
2022-10-27T02:34:45.852Z,9.20
2022-10-27T02:37:32.008Z,9.20
2022-10-27T02:40:04.170Z,9.10
2022-10-27T02:42:36.189Z,9.10
2022-10-27T02:45:08.400Z,9.10
2022-10-27T02:47:40.102Z,9.00
2022-10-27T02:50:11.794Z,9.00
2022-10-27T02:52:44.149Z,9.00
2022-10-27T02:55:15.934Z,9.00
2022-10-27T02:57:47.635Z,9.00
2022-10-27T03:00:19.467Z,9.00
2022-10-27T03:02:51.391Z,9.10
2022-10-27T03:05:23.277Z,9.10
2022-10-27T03:07:54.983Z,9.10
2022-10-27T03:10:26.784Z,9.10
2022-10-27T03:12:58.482Z,9.00
2022-10-27T03:15:30.250Z,9.00
2022-10-27T03:18:01.976Z,9.00
2022-10-27T03:20:33.673Z,8.90
2022-10-27T03:23:05.491Z,8.90
2022-10-27T03:25:37.437Z,8.80
2022-10-27T03:28:10.764Z,8.80
2022-10-27T03:30:42.559Z,8.80
2022-10-27T03:33:14.320Z,8.80
2022-10-27T03:35:46.051Z,8.80
2022-10-27T03:38:17.756Z,8.80
2022-10-27T03:40:49.456Z,8.80
2022-10-27T03:43:21.182Z,8.80
2022-10-27T03:45:57.137Z,8.80
2022-10-27T03:48:31.897Z,8.80
2022-10-27T03:51:03.786Z,8.80
2022-10-27T03:53:35.635Z,8.80
2022-10-27T03:56:07.536Z,8.80
2022-10-27T03:58:39.515Z,8.90
2022-10-27T04:01:12.239Z,8.90
2022-10-27T04:03:44.051Z,8.90
2022-10-27T04:06:15.893Z,8.90
2022-10-27T04:08:47.755Z,8.90
2022-10-27T04:11:19.453Z,8.90
2022-10-27T04:13:51.168Z,8.90
2022-10-27T04:16:22.996Z,9.00
2022-10-27T04:21:31.414Z,9.00
2022-10-27T04:24:03.155Z,9.00
2022-10-27T04:26:34.947Z,6.90
2022-10-27T04:29:06.689Z,9.10
2022-10-27T04:31:38.401Z,9.10
2022-10-27T04:34:10.123Z,9.10
2022-10-27T04:36:41.832Z,9.20
2022-10-27T04:39:15.109Z,9.10
2022-10-27T04:41:46.830Z,9.20
2022-10-27T04:44:18.621Z,9.20
2022-10-27T04:46:50.442Z,9.20
2022-10-27T04:49:22.159Z,9.20
2022-10-27T04:51:54.108Z,9.20
2022-10-27T04:54:25.839Z,9.20
2022-10-27T04:56:57.545Z,9.20
2022-10-27T04:59:29.267Z,9.20
2022-10-27T05:02:01.095Z,9.20
2022-10-27T05:04:32.913Z,9.20
2022-10-27T05:07:04.646Z,9.20
2022-10-27T05:09:36.350Z,9.30
2022-10-27T05:12:08.079Z,9.20
2022-10-27T05:14:40.210Z,9.20
2022-10-27T05:17:15.621Z,9.20
2022-10-27T05:19:50.029Z,9.30
2022-10-27T05:22:21.829Z,9.30
2022-10-27T05:24:53.575Z,9.20
2022-10-27T05:27:25.330Z,9.20
2022-10-27T05:29:57.021Z,9.20
2022-10-27T05:32:28.714Z,9.20
2022-10-27T05:35:00.611Z,9.20
2022-10-27T05:37:32.349Z,9.10
2022-10-27T05:40:04.636Z,9.20
2022-10-27T05:42:36.361Z,9.20
2022-10-27T05:45:08.758Z,9.20
2022-10-27T05:47:40.664Z,9.20
2022-10-27T05:50:12.490Z,9.20
2022-10-27T05:52:46.732Z,9.20
2022-10-27T05:55:18.451Z,9.10
2022-10-27T05:58:04.570Z,9.10
2022-10-27T06:00:38.190Z,9.10
2022-10-27T06:03:21.405Z,9.10
2022-10-27T06:05:53.822Z,9.10
2022-10-27T06:08:25.547Z,9.00
2022-10-27T06:10:57.387Z,9.10
2022-10-27T06:13:30.080Z,9.00
2022-10-27T06:16:01.832Z,8.90
2022-10-27T06:18:33.578Z,8.90
2022-10-27T06:21:05.467Z,8.90
2022-10-27T06:23:37.898Z,8.80
2022-10-27T06:26:11.486Z,8.80
2022-10-27T06:28:43.194Z,8.90
2022-10-27T06:31:14.889Z,8.90
2022-10-27T06:33:46.680Z,8.90
2022-10-27T06:36:18.441Z,9.00
2022-10-27T06:38:50.145Z,9.10
2022-10-27T06:41:21.855Z,9.10
2022-10-27T06:43:53.618Z,9.20
2022-10-27T06:46:25.327Z,9.20
2022-10-27T06:48:57.026Z,9.20
2022-10-27T06:51:28.729Z,9.20
2022-10-27T06:54:00.649Z,9.20
2022-10-27T06:56:32.579Z,9.20
2022-10-27T06:59:04.302Z,9.20
2022-10-27T07:01:36.113Z,9.20
2022-10-27T07:04:08.003Z,9.20
2022-10-27T07:06:39.728Z,9.20
2022-10-27T07:09:11.510Z,9.20
2022-10-27T07:11:43.221Z,9.30
2022-10-27T07:14:15.097Z,9.30
2022-10-27T07:16:46.833Z,9.30
2022-10-27T07:19:18.531Z,9.40
2022-10-27T07:21:50.242Z,9.50
2022-10-27T07:24:21.943Z,9.50
2022-10-27T07:26:53.665Z,9.60
2022-10-27T07:29:25.415Z,9.70
2022-10-27T07:31:58.212Z,9.80
2022-10-27T07:34:29.939Z,9.90
2022-10-27T07:37:01.666Z,9.90
2022-10-27T07:39:33.410Z,9.90
2022-10-27T07:42:05.190Z,9.90
2022-10-27T07:44:36.917Z,10.00
2022-10-27T07:47:08.664Z,10.00
2022-10-27T07:49:40.367Z,10.10
2022-10-27T07:52:12.058Z,10.20
2022-10-27T07:54:43.814Z,10.20
2022-10-27T07:57:15.519Z,10.30
2022-10-27T07:59:47.278Z,10.40
2022-10-27T08:02:19.112Z,10.40
2022-10-27T08:04:50.992Z,10.40
2022-10-27T08:07:23.056Z,10.50
2022-10-27T08:09:54.789Z,10.50
2022-10-27T08:12:26.607Z,10.70
2022-10-27T08:14:58.356Z,10.80
2022-10-27T08:17:32.283Z,10.90
2022-10-27T08:20:04.373Z,10.90
2022-10-27T08:22:36.308Z,11.00
2022-10-27T08:25:10.065Z,11.10
2022-10-27T08:27:42.078Z,11.20
2022-10-27T08:30:13.877Z,11.30
2022-10-27T08:32:45.630Z,11.40
2022-10-27T08:35:17.439Z,11.40
2022-10-27T08:37:49.624Z,11.50
2022-10-27T08:40:21.710Z,11.60
2022-10-27T08:43:17.610Z,11.60
2022-10-27T08:46:02.573Z,11.70
2022-10-27T08:48:36.859Z,11.70
2022-10-27T08:51:16.154Z,11.80
2022-10-27T08:53:52.599Z,11.80
2022-10-27T08:56:31.119Z,11.90
2022-10-27T08:59:04.012Z,11.90
2022-10-27T09:01:43.845Z,12.00
2022-10-27T09:04:21.377Z,12.10
2022-10-27T09:07:17.215Z,12.10
2022-10-27T09:10:01.037Z,12.30
2022-10-27T09:13:02.778Z,12.30
2022-10-27T09:15:50.694Z,12.40
2022-10-27T09:18:41.246Z,12.50
2022-10-27T09:21:18.679Z,12.50
2022-10-27T09:23:53.044Z,12.60
2022-10-27T09:26:32.244Z,12.60
2022-10-27T09:29:15.779Z,12.60
2022-10-27T09:31:47.471Z,12.60
2022-10-27T09:34:23.660Z,12.60
2022-10-27T09:36:56.326Z,12.70
2022-10-27T09:39:28.030Z,13.30
2022-10-27T09:41:59.750Z,12.70
2022-10-27T09:44:31.688Z,12.80
2022-10-27T09:47:03.550Z,13.00
2022-10-27T09:49:38.893Z,13.00
2022-10-27T09:52:12.608Z,13.10
2022-10-27T09:54:55.832Z,13.30
2022-10-27T09:57:32.047Z,13.40
2022-10-27T10:00:16.235Z,13.50
2022-10-27T10:03:17.651Z,13.60
2022-10-27T10:06:05.329Z,13.80
2022-10-27T10:08:38.414Z,14.00
2022-10-27T10:11:22.345Z,14.20
2022-10-27T10:13:59.442Z,14.30
2022-10-27T10:16:33.111Z,14.30
2022-10-27T10:19:26.638Z,14.40
2022-10-27T10:22:00.523Z,14.50
2022-10-27T10:24:34.127Z,14.60
2022-10-27T10:27:06.908Z,14.50
2022-10-27T10:29:50.520Z,14.60
2022-10-27T10:32:28.727Z,14.70
2022-10-27T10:35:01.195Z,14.70
2022-10-27T10:37:46.690Z,14.80
2022-10-27T10:40:26.531Z,14.90
2022-10-27T10:43:12.034Z,14.90
2022-10-27T10:45:52.351Z,15.00
2022-10-27T10:48:32.211Z,15.00
2022-10-27T10:51:04.371Z,15.10
2022-10-27T10:53:50.118Z,15.20
2022-10-27T10:56:25.469Z,15.20
2022-10-27T10:59:15.400Z,15.20
2022-10-27T11:02:18.133Z,15.30
2022-10-27T11:04:51.698Z,15.40
2022-10-27T11:07:28.769Z,15.50
2022-10-27T11:10:18.102Z,15.60
2022-10-27T11:13:11.266Z,15.50
2022-10-27T11:15:50.623Z,15.60
2022-10-27T11:18:26.992Z,15.70
2022-10-27T11:21:09.174Z,15.80
2022-10-27T11:23:47.489Z,15.80
2022-10-27T11:26:30.569Z,15.90
2022-10-27T11:29:21.739Z,16.00
2022-10-27T11:32:02.329Z,16.00
2022-10-27T11:34:56.790Z,15.90
2022-10-27T11:37:31.249Z,16.00
2022-10-27T11:40:24.083Z,16.10
2022-10-27T11:43:18.973Z,16.10
2022-10-27T11:46:13.803Z,16.20
2022-10-27T11:49:14.319Z,16.30
2022-10-27T11:52:25.477Z,16.30
2022-10-27T11:54:58.032Z,16.40
2022-10-27T11:57:39.415Z,16.50
2022-10-27T12:00:18.961Z,16.50
2022-10-27T12:03:08.603Z,16.60
2022-10-27T12:06:01.125Z,16.70
2022-10-27T12:08:57.611Z,16.70
2022-10-27T12:11:41.689Z,16.80
2022-10-27T12:14:43.148Z,17.00
2022-10-27T12:17:36.175Z,17.00
2022-10-27T12:20:12.958Z,17.00
2022-10-27T12:26:02.535Z,17.20
2022-10-27T12:28:35.787Z,17.30
2022-10-27T12:31:12.307Z,17.30
2022-10-27T12:33:57.241Z,17.40
2022-10-27T12:36:33.757Z,17.40
2022-10-27T12:39:31.721Z,17.50
2022-10-27T12:42:18.748Z,17.40
2022-10-27T12:45:18.843Z,17.50
2022-10-27T12:48:06.682Z,17.50
2022-10-27T12:50:53.541Z,17.60
2022-10-27T12:53:44.031Z,17.70
2022-10-27T12:56:26.555Z,17.80
2022-10-27T12:59:10.188Z,17.80
2022-10-27T13:02:08.847Z,17.80
2022-10-27T13:05:02.630Z,17.80
2022-10-27T13:08:10.223Z,17.80
2022-10-27T13:11:19.414Z,17.90
2022-10-27T13:14:11.201Z,17.90
2022-10-27T13:16:45.930Z,18.00
2022-10-27T13:19:23.790Z,18.00
2022-10-27T13:22:27.800Z,18.00
2022-10-27T13:25:02.516Z,18.00
2022-10-27T13:27:44.435Z,18.00
2022-10-27T13:30:24.701Z,18.00
2022-10-27T13:32:56.982Z,18.00
2022-10-27T13:35:38.166Z,18.00
2022-10-27T13:38:18.806Z,18.20
2022-10-27T13:40:52.391Z,18.10
2022-10-27T13:43:24.063Z,18.10
2022-10-27T13:45:56.626Z,18.10
2022-10-27T13:48:28.279Z,18.10
2022-10-27T13:51:48.325Z,18.20
2022-10-27T13:54:58.879Z,18.10
2022-10-27T13:57:48.829Z,18.10
2022-10-27T14:00:24.239Z,18.10
2022-10-27T14:03:04.625Z,18.10
2022-10-27T14:05:47.438Z,18.10
2022-10-27T14:08:28.051Z,18.10
2022-10-27T14:11:12.722Z,18.00
2022-10-27T14:13:51.463Z,18.00
2022-10-27T14:16:34.404Z,18.10
2022-10-27T14:19:15.272Z,18.10
2022-10-27T14:21:49.104Z,18.10
2022-10-27T14:24:29.822Z,18.10
2022-10-27T14:27:04.881Z,18.00
2022-10-27T14:29:38.684Z,18.00
2022-10-27T14:32:18.023Z,18.00
2022-10-27T14:34:50.568Z,17.90
2022-10-27T14:37:35.320Z,17.80
2022-10-27T14:40:17.499Z,17.80
2022-10-27T14:42:50.675Z,17.70
2022-10-27T14:45:23.562Z,17.70
2022-10-27T14:48:02.013Z,17.60
2022-10-27T14:50:36.037Z,17.60
2022-10-27T14:53:28.639Z,17.60
2022-10-27T14:56:19.653Z,17.70
2022-10-27T14:58:54.337Z,17.50
2022-10-27T15:01:36.259Z,17.60
2022-10-27T15:04:20.760Z,17.50
2022-10-27T15:06:56.826Z,17.50
2022-10-27T15:09:37.080Z,17.60
2022-10-27T15:12:25.937Z,17.40
2022-10-27T15:15:01.475Z,17.30
2022-10-27T15:17:36.847Z,17.20
2022-10-27T15:20:16.283Z,17.20
2022-10-27T15:22:52.376Z,17.10
2022-10-27T15:25:28.142Z,17.00
2022-10-27T15:28:01.442Z,17.00
2022-10-27T15:30:35.509Z,17.00
2022-10-27T15:33:26.074Z,16.90
2022-10-27T15:36:19.049Z,16.80
2022-10-27T15:38:51.882Z,16.80
2022-10-27T15:41:28.118Z,16.70
2022-10-27T15:44:02.945Z,16.60
2022-10-27T15:46:35.870Z,16.60
2022-10-27T15:49:17.719Z,16.50
2022-10-27T15:51:53.542Z,16.40
2022-10-27T15:54:48.729Z,16.30
2022-10-27T15:57:38.796Z,16.20
2022-10-27T16:00:22.244Z,16.10
2022-10-27T16:02:58.092Z,16.00
2022-10-27T16:05:29.784Z,15.90
2022-10-27T16:08:14.502Z,15.90
2022-10-27T16:10:51.565Z,15.80
2022-10-27T16:13:23.268Z,15.70
2022-10-27T16:15:55.049Z,15.60
2022-10-27T16:18:26.855Z,15.60
2022-10-27T16:20:58.683Z,15.40
2022-10-27T16:23:30.417Z,15.40
2022-10-27T16:26:02.126Z,15.30
2022-10-27T16:28:38.329Z,15.20
2022-10-27T16:31:18.146Z,15.10
2022-10-27T16:33:49.910Z,15.00
2022-10-27T16:36:21.902Z,15.00
2022-10-27T16:38:53.618Z,14.90
2022-10-27T16:41:28.544Z,14.80
2022-10-27T16:44:00.344Z,14.70
2022-10-27T16:46:32.049Z,14.60
2022-10-27T16:49:03.938Z,14.50
2022-10-27T16:51:35.663Z,14.50
2022-10-27T16:54:07.385Z,14.40
2022-10-27T16:56:50.377Z,14.30
2022-10-27T16:59:22.189Z,14.20
2022-10-27T17:01:54.051Z,14.20
2022-10-27T17:04:26.529Z,14.10
2022-10-27T17:06:58.238Z,14.00
2022-10-27T17:09:30.001Z,14.00
2022-10-27T17:12:01.740Z,15.20
2022-10-27T17:14:33.646Z,13.80
2022-10-27T17:17:05.470Z,13.70
2022-10-27T17:19:37.179Z,13.70
2022-10-27T17:22:08.883Z,13.60
2022-10-27T17:24:40.592Z,13.60
2022-10-27T17:27:12.340Z,13.50
2022-10-27T17:29:44.278Z,13.40
2022-10-27T17:32:16.320Z,13.40
2022-10-27T17:34:48.023Z,13.40
2022-10-27T17:37:19.750Z,13.40
2022-10-27T17:39:51.506Z,13.30
2022-10-27T17:42:23.232Z,13.30
2022-10-27T17:44:54.935Z,13.30
2022-10-27T17:47:27.723Z,13.20
2022-10-27T17:50:03.338Z,13.20
2022-10-27T17:52:38.385Z,13.20
2022-10-27T17:55:10.291Z,13.20
2022-10-27T17:57:42.065Z,13.10
2022-10-27T18:00:14.347Z,13.10
2022-10-27T18:02:50.200Z,13.00
2022-10-27T18:05:25.983Z,12.90
2022-10-27T18:08:00.507Z,12.90
2022-10-27T18:10:32.761Z,12.90
2022-10-27T18:13:04.489Z,12.90
2022-10-27T18:15:36.589Z,12.80
2022-10-27T18:18:08.453Z,12.80
2022-10-27T18:20:40.236Z,12.50
2022-10-27T18:23:11.950Z,12.70
2022-10-27T18:25:43.653Z,12.60
2022-10-27T18:28:15.343Z,12.60
2022-10-27T18:30:47.056Z,12.60
2022-10-27T18:33:18.742Z,12.50
2022-10-27T18:35:50.437Z,12.50
2022-10-27T18:38:22.165Z,12.40
2022-10-27T18:40:57.743Z,12.40
2022-10-27T18:43:29.447Z,12.40
2022-10-27T18:46:02.901Z,12.40
2022-10-27T18:48:35.707Z,12.30
2022-10-27T18:51:12.686Z,12.30
2022-10-27T18:53:44.882Z,12.20
2022-10-27T18:56:16.627Z,12.20
2022-10-27T18:59:08.039Z,12.20
2022-10-27T19:01:39.912Z,12.10
2022-10-27T19:04:11.742Z,12.10
2022-10-27T19:06:43.567Z,12.10
2022-10-27T19:09:15.375Z,12.10
2022-10-27T19:11:47.185Z,12.00
2022-10-27T19:14:18.953Z,12.00
2022-10-27T19:16:54.639Z,11.90
2022-10-27T19:19:28.745Z,11.90
2022-10-27T19:22:00.505Z,11.90
2022-10-27T19:24:32.791Z,11.90
2022-10-27T19:27:04.517Z,11.90
2022-10-27T19:29:36.287Z,11.90
2022-10-27T19:32:08.095Z,11.80
2022-10-27T19:34:40.026Z,11.80
2022-10-27T19:37:11.823Z,11.80
2022-10-27T19:39:43.560Z,11.70
2022-10-27T19:42:15.369Z,11.60
2022-10-27T19:44:50.322Z,11.60
2022-10-27T19:47:22.093Z,11.60
2022-10-27T19:49:53.834Z,11.50
2022-10-27T19:52:25.570Z,11.50
2022-10-27T19:54:57.911Z,11.40
2022-10-27T19:57:29.617Z,11.40
2022-10-27T20:00:06.806Z,11.50
2022-10-27T20:02:40.678Z,11.50
2022-10-27T20:05:12.534Z,11.50
2022-10-27T20:07:44.342Z,11.40
2022-10-27T20:10:16.839Z,11.40
2022-10-27T20:12:49.053Z,11.30
2022-10-27T20:15:20.783Z,11.30
2022-10-27T20:17:52.704Z,11.20
2022-10-27T20:20:24.618Z,11.20
2022-10-27T20:22:57.058Z,11.10
2022-10-27T20:25:28.745Z,11.10
2022-10-27T20:28:00.513Z,11.10
2022-10-27T20:30:32.273Z,11.10
2022-10-27T20:33:04.064Z,11.10
2022-10-27T20:35:35.757Z,11.10
2022-10-27T20:38:08.045Z,11.10
2022-10-27T20:40:39.926Z,11.10
2022-10-27T20:43:11.651Z,11.10
2022-10-27T20:45:43.358Z,11.10
2022-10-27T20:48:15.076Z,11.10
2022-10-27T20:51:07.494Z,11.10
2022-10-27T20:53:39.897Z,11.10
2022-10-27T20:56:17.631Z,11.40
2022-10-27T20:58:50.001Z,11.10
2022-10-27T21:01:30.750Z,11.10
2022-10-27T21:04:05.283Z,11.00
2022-10-27T21:06:43.545Z,11.00
2022-10-27T21:09:17.666Z,11.00
2022-10-27T21:11:50.086Z,11.10
2022-10-27T21:14:22.214Z,11.10
2022-10-27T21:16:54.017Z,11.10
2022-10-27T21:19:25.704Z,11.10
2022-10-27T21:21:57.409Z,11.10
2022-10-27T21:24:29.120Z,11.10
2022-10-27T21:27:00.829Z,11.10
2022-10-27T21:29:32.918Z,11.10
2022-10-27T21:32:04.847Z,11.10
2022-10-27T21:34:36.529Z,11.10
2022-10-27T21:37:08.344Z,11.10
2022-10-27T21:39:40.331Z,11.10
2022-10-27T21:42:12.032Z,11.10
2022-10-27T21:44:43.757Z,11.10
2022-10-27T21:47:15.517Z,11.10
2022-10-27T21:49:47.207Z,11.10
2022-10-27T21:52:18.927Z,11.10
2022-10-27T21:54:50.662Z,11.10
2022-10-27T21:57:22.375Z,11.00
2022-10-27T21:59:54.173Z,11.00
2022-10-27T22:02:26.054Z,11.00
2022-10-27T22:04:57.754Z,11.00
2022-10-27T22:07:29.457Z,11.00
2022-10-27T22:10:01.158Z,11.00
2022-10-27T22:12:32.870Z,11.00
2022-10-27T22:15:05.003Z,11.00
2022-10-27T22:17:36.710Z,11.10
2022-10-27T22:20:08.842Z,11.20
2022-10-27T22:22:40.567Z,11.30
2022-10-27T22:25:12.282Z,11.30
2022-10-27T22:27:44.092Z,11.30
2022-10-27T22:30:15.886Z,11.30
2022-10-27T22:32:47.577Z,11.30
2022-10-27T22:35:19.289Z,11.30
2022-10-27T22:37:51.242Z,11.20
2022-10-27T22:40:23.274Z,11.30
2022-10-27T22:42:54.969Z,11.30
2022-10-27T22:45:26.663Z,11.30
2022-10-27T22:47:58.434Z,11.30
2022-10-27T22:50:30.153Z,11.20
2022-10-27T22:53:01.857Z,11.20
2022-10-27T22:55:35.449Z,11.10
2022-10-27T22:58:07.407Z,11.00
2022-10-27T23:00:39.094Z,11.00
2022-10-27T23:03:10.995Z,11.00
2022-10-27T23:05:46.043Z,11.00
2022-10-27T23:08:17.817Z,11.10
2022-10-27T23:11:00.926Z,11.10
2022-10-27T23:13:35.914Z,11.10
2022-10-27T23:16:08.855Z,11.10
2022-10-27T23:18:41.015Z,11.10
2022-10-27T23:21:15.261Z,11.00
2022-10-27T23:23:49.746Z,11.00
2022-10-27T23:26:27.642Z,11.00
2022-10-27T23:29:01.109Z,10.90
2022-10-27T23:31:33.825Z,10.90
2022-10-27T23:34:07.198Z,10.90
2022-10-27T23:36:39.365Z,10.90
2022-10-27T23:39:11.446Z,11.00
2022-10-27T23:41:43.254Z,11.00
2022-10-27T23:44:15.243Z,11.10
2022-10-27T23:46:46.950Z,11.10
2022-10-27T23:49:18.718Z,11.20
2022-10-27T23:51:50.548Z,11.30
2022-10-27T23:54:22.230Z,11.40
2022-10-27T23:56:54.168Z,11.50
2022-10-27T23:59:25.934Z,11.60
